sensor_id;sensor_type;location;lat;lon;timestamp;P1;durP1;ratioP1;P2;durP2;ratioP2
8279;SDS011;8335;42.646;23.380;2023-02-28T00:01:04;24.83;;;14.50;;
8279;SDS011;8335;42.646;23.380;2023-02-28T00:03:30;26.90;;;16.53;;
8279;SDS011;8335;42.646;23.380;2023-02-28T00:06:00;25.57;;;15.23;;
8279;SDS011;8335;42.646;23.380;2023-02-28T00:08:27;28.27;;;15.53;;
8279;SDS011;8335;42.646;23.380;2023-02-28T00:10:54;27.60;;;15.23;;
8279;SDS011;8335;42.646;23.380;2023-02-28T00:13:22;27.47;;;14.57;;
8279;SDS011;8335;42.646;23.380;2023-02-28T00:15:58;27.13;;;16.47;;
8279;SDS011;8335;42.646;23.380;2023-02-28T00:18:26;23.93;;;14.00;;
8279;SDS011;8335;42.646;23.380;2023-02-28T00:20:53;27.53;;;16.60;;
8279;SDS011;8335;42.646;23.380;2023-02-28T00:23:19;26.47;;;15.00;;
8279;SDS011;8335;42.646;23.380;2023-02-28T00:25:46;28.73;;;15.53;;
8279;SDS011;8335;42.646;23.380;2023-02-28T00:28:13;26.70;;;14.80;;
8279;SDS011;8335;42.646;23.380;2023-02-28T00:30:41;25.67;;;13.30;;
8279;SDS011;8335;42.646;23.380;2023-02-28T00:33:08;21.67;;;12.97;;
8279;SDS011;8335;42.646;23.380;2023-02-28T00:35:35;25.33;;;12.73;;
8279;SDS011;8335;42.646;23.380;2023-02-28T00:38:02;25.90;;;15.33;;
8279;SDS011;8335;42.646;23.380;2023-02-28T00:40:29;29.47;;;16.60;;
8279;SDS011;8335;42.646;23.380;2023-02-28T00:42:56;29.60;;;16.00;;
8279;SDS011;8335;42.646;23.380;2023-02-28T00:45:23;26.03;;;15.37;;
8279;SDS011;8335;42.646;23.380;2023-02-28T00:47:51;27.93;;;15.43;;
8279;SDS011;8335;42.646;23.380;2023-02-28T00:50:19;28.17;;;16.57;;
8279;SDS011;8335;42.646;23.380;2023-02-28T00:52:46;25.97;;;15.83;;
8279;SDS011;8335;42.646;23.380;2023-02-28T00:55:13;32.97;;;16.47;;
8279;SDS011;8335;42.646;23.380;2023-02-28T00:57:41;28.83;;;15.93;;
8279;SDS011;8335;42.646;23.380;2023-02-28T01:00:08;25.70;;;15.83;;
8279;SDS011;8335;42.646;23.380;2023-02-28T01:02:36;28.30;;;16.27;;
8279;SDS011;8335;42.646;23.380;2023-02-28T01:05:04;25.53;;;15.13;;
8279;SDS011;8335;42.646;23.380;2023-02-28T01:07:32;25.87;;;15.60;;
8279;SDS011;8335;42.646;23.380;2023-02-28T01:09:58;27.83;;;15.50;;
8279;SDS011;8335;42.646;23.380;2023-02-28T01:12:25;28.53;;;15.60;;
8279;SDS011;8335;42.646;23.380;2023-02-28T01:14:52;27.73;;;15.87;;
8279;SDS011;8335;42.646;23.380;2023-02-28T01:17:19;29.07;;;15.20;;
8279;SDS011;8335;42.646;23.380;2023-02-28T01:19:45;29.97;;;15.97;;
8279;SDS011;8335;42.646;23.380;2023-02-28T01:22:14;27.13;;;16.17;;
8279;SDS011;8335;42.646;23.380;2023-02-28T01:24:40;27.30;;;15.30;;
8279;SDS011;8335;42.646;23.380;2023-02-28T01:27:07;27.30;;;16.00;;
8279;SDS011;8335;42.646;23.380;2023-02-28T01:29:34;30.27;;;17.40;;
8279;SDS011;8335;42.646;23.380;2023-02-28T01:32:01;31.60;;;17.13;;
8279;SDS011;8335;42.646;23.380;2023-02-28T01:34:27;29.83;;;17.20;;
8279;SDS011;8335;42.646;23.380;2023-02-28T01:36:54;30.60;;;17.50;;
8279;SDS011;8335;42.646;23.380;2023-02-28T01:39:25;32.63;;;17.97;;
8279;SDS011;8335;42.646;23.380;2023-02-28T01:41:52;31.13;;;17.70;;
8279;SDS011;8335;42.646;23.380;2023-02-28T01:47:35;29.30;;;17.10;;
8279;SDS011;8335;42.646;23.380;2023-02-28T01:50:06;31.97;;;18.00;;
8279;SDS011;8335;42.646;23.380;2023-02-28T01:52:36;31.27;;;17.67;;
8279;SDS011;8335;42.646;23.380;2023-02-28T01:55:05;30.27;;;17.87;;
8279;SDS011;8335;42.646;23.380;2023-02-28T01:57:34;27.57;;;16.80;;
8279;SDS011;8335;42.646;23.380;2023-02-28T02:00:05;28.90;;;17.10;;
8279;SDS011;8335;42.646;23.380;2023-02-28T02:02:38;31.47;;;17.93;;
8279;SDS011;8335;42.646;23.380;2023-02-28T02:05:07;28.60;;;16.93;;
8279;SDS011;8335;42.646;23.380;2023-02-28T02:07:36;28.60;;;17.03;;
8279;SDS011;8335;42.646;23.380;2023-02-28T02:10:10;27.00;;;15.97;;
8279;SDS011;8335;42.646;23.380;2023-02-28T02:15:57;30.33;;;17.63;;
8279;SDS011;8335;42.646;23.380;2023-02-28T02:18:31;33.83;;;18.73;;
8279;SDS011;8335;42.646;23.380;2023-02-28T02:24:11;30.73;;;17.83;;
8279;SDS011;8335;42.646;23.380;2023-02-28T02:30:22;31.47;;;17.23;;
8279;SDS011;8335;42.646;23.380;2023-02-28T02:33:06;32.43;;;17.83;;
8279;SDS011;8335;42.646;23.380;2023-02-28T02:35:45;34.10;;;17.67;;
8279;SDS011;8335;42.646;23.380;2023-02-28T02:38:19;31.77;;;17.67;;
8279;SDS011;8335;42.646;23.380;2023-02-28T02:40:56;32.87;;;18.53;;
8279;SDS011;8335;42.646;23.380;2023-02-28T02:43:26;35.73;;;18.93;;
8279;SDS011;8335;42.646;23.380;2023-02-28T02:45:57;33.20;;;17.10;;
8279;SDS011;8335;42.646;23.380;2023-02-28T02:48:31;35.60;;;19.17;;
8279;SDS011;8335;42.646;23.380;2023-02-28T02:51:05;33.63;;;18.83;;
8279;SDS011;8335;42.646;23.380;2023-02-28T02:53:37;33.57;;;18.33;;
8279;SDS011;8335;42.646;23.380;2023-02-28T02:56:09;29.70;;;17.70;;
8279;SDS011;8335;42.646;23.380;2023-02-28T02:58:39;33.03;;;18.47;;
8279;SDS011;8335;42.646;23.380;2023-02-28T03:01:10;34.43;;;18.47;;
8279;SDS011;8335;42.646;23.380;2023-02-28T03:03:41;31.47;;;17.90;;
8279;SDS011;8335;42.646;23.380;2023-02-28T03:06:10;31.03;;;17.83;;
8279;SDS011;8335;42.646;23.380;2023-02-28T03:08:37;33.93;;;17.73;;
8279;SDS011;8335;42.646;23.380;2023-02-28T03:11:05;30.43;;;18.03;;
8279;SDS011;8335;42.646;23.380;2023-02-28T03:19:31;30.97;;;18.23;;
8279;SDS011;8335;42.646;23.380;2023-02-28T03:22:12;34.03;;;18.90;;
8279;SDS011;8335;42.646;23.380;2023-02-28T03:24:45;37.70;;;19.10;;
8279;SDS011;8335;42.646;23.380;2023-02-28T03:27:21;35.13;;;19.53;;
8279;SDS011;8335;42.646;23.380;2023-02-28T03:29:55;37.23;;;19.63;;
8279;SDS011;8335;42.646;23.380;2023-02-28T03:32:26;35.10;;;18.97;;
8279;SDS011;8335;42.646;23.380;2023-02-28T03:34:56;44.80;;;22.27;;
8279;SDS011;8335;42.646;23.380;2023-02-28T03:37:32;41.57;;;22.17;;
8279;SDS011;8335;42.646;23.380;2023-02-28T03:40:02;44.13;;;21.90;;
8279;SDS011;8335;42.646;23.380;2023-02-28T03:42:35;44.07;;;21.53;;
8279;SDS011;8335;42.646;23.380;2023-02-28T03:45:08;60.50;;;22.93;;
8279;SDS011;8335;42.646;23.380;2023-02-28T03:47:40;41.40;;;20.77;;
8279;SDS011;8335;42.646;23.380;2023-02-28T03:50:12;40.40;;;22.03;;
8279;SDS011;8335;42.646;23.380;2023-02-28T03:52:46;47.47;;;21.40;;
8279;SDS011;8335;42.646;23.380;2023-02-28T03:55:16;46.07;;;23.07;;
8279;SDS011;8335;42.646;23.380;2023-02-28T03:57:47;41.57;;;21.30;;
8279;SDS011;8335;42.646;23.380;2023-02-28T04:00:25;53.63;;;21.07;;
8279;SDS011;8335;42.646;23.380;2023-02-28T04:02:57;49.27;;;22.23;;
8279;SDS011;8335;42.646;23.380;2023-02-28T04:05:25;63.70;;;21.90;;
8279;SDS011;8335;42.646;23.380;2023-02-28T04:07:54;70.60;;;20.57;;
8279;SDS011;8335;42.646;23.380;2023-02-28T04:10:29;44.13;;;22.03;;
8279;SDS011;8335;42.646;23.380;2023-02-28T04:12:56;53.23;;;20.00;;
8279;SDS011;8335;42.646;23.380;2023-02-28T04:15:22;56.57;;;20.57;;
8279;SDS011;8335;42.646;23.380;2023-02-28T04:17:49;80.63;;;21.20;;
8279;SDS011;8335;42.646;23.380;2023-02-28T04:20:16;54.93;;;20.77;;
8279;SDS011;8335;42.646;23.380;2023-02-28T04:22:43;36.40;;;18.87;;
8279;SDS011;8335;42.646;23.380;2023-02-28T04:25:11;60.80;;;19.07;;
8279;SDS011;8335;42.646;23.380;2023-02-28T04:27:38;45.43;;;20.37;;
8279;SDS011;8335;42.646;23.380;2023-02-28T04:30:05;56.03;;;18.97;;
8279;SDS011;8335;42.646;23.380;2023-02-28T04:32:33;68.03;;;20.67;;
8279;SDS011;8335;42.646;23.380;2023-02-28T04:34:59;71.10;;;19.83;;
8279;SDS011;8335;42.646;23.380;2023-02-28T04:37:26;60.60;;;19.67;;
8279;SDS011;8335;42.646;23.380;2023-02-28T04:39:53;59.73;;;19.63;;
8279;SDS011;8335;42.646;23.380;2023-02-28T04:42:25;38.27;;;19.50;;
8279;SDS011;8335;42.646;23.380;2023-02-28T04:44:52;46.93;;;19.50;;
8279;SDS011;8335;42.646;23.380;2023-02-28T04:47:19;62.17;;;19.13;;
8279;SDS011;8335;42.646;23.380;2023-02-28T04:49:45;68.73;;;21.40;;
8279;SDS011;8335;42.646;23.380;2023-02-28T04:52:12;137.47;;;26.50;;
8279;SDS011;8335;42.646;23.380;2023-02-28T04:54:39;80.90;;;24.83;;
8279;SDS011;8335;42.646;23.380;2023-02-28T04:57:08;96.40;;;27.63;;
8279;SDS011;8335;42.646;23.380;2023-02-28T04:59:36;80.00;;;26.37;;
8279;SDS011;8335;42.646;23.380;2023-02-28T05:02:03;75.90;;;27.50;;
8279;SDS011;8335;42.646;23.380;2023-02-28T05:04:31;83.73;;;27.73;;
8279;SDS011;8335;42.646;23.380;2023-02-28T05:06:59;65.33;;;29.50;;
8279;SDS011;8335;42.646;23.380;2023-02-28T05:09:26;90.20;;;32.60;;
8279;SDS011;8335;42.646;23.380;2023-02-28T05:11:54;86.13;;;37.53;;
8279;SDS011;8335;42.646;23.380;2023-02-28T05:14:21;86.07;;;36.67;;
8279;SDS011;8335;42.646;23.380;2023-02-28T05:16:49;80.57;;;36.73;;
8279;SDS011;8335;42.646;23.380;2023-02-28T05:19:16;66.23;;;31.47;;
8279;SDS011;8335;42.646;23.380;2023-02-28T05:21:48;62.97;;;27.93;;
8279;SDS011;8335;42.646;23.380;2023-02-28T05:24:17;67.93;;;31.20;;
8279;SDS011;8335;42.646;23.380;2023-02-28T05:26:47;62.53;;;27.03;;
8279;SDS011;8335;42.646;23.380;2023-02-28T05:29:15;60.63;;;27.93;;
8279;SDS011;8335;42.646;23.380;2023-02-28T05:31:41;57.23;;;25.03;;
8279;SDS011;8335;42.646;23.380;2023-02-28T05:34:10;64.53;;;26.17;;
8279;SDS011;8335;42.646;23.380;2023-02-28T05:36:37;52.93;;;24.33;;
8279;SDS011;8335;42.646;23.380;2023-02-28T05:39:05;47.30;;;24.70;;
8279;SDS011;8335;42.646;23.380;2023-02-28T05:41:32;57.20;;;25.33;;
8279;SDS011;8335;42.646;23.380;2023-02-28T05:43:59;51.70;;;25.53;;
8279;SDS011;8335;42.646;23.380;2023-02-28T05:46:26;48.20;;;24.60;;
8279;SDS011;8335;42.646;23.380;2023-02-28T05:48:53;53.47;;;25.23;;
8279;SDS011;8335;42.646;23.380;2023-02-28T05:51:22;54.60;;;25.80;;
8279;SDS011;8335;42.646;23.380;2023-02-28T05:53:48;50.63;;;24.63;;
8279;SDS011;8335;42.646;23.380;2023-02-28T05:56:15;54.57;;;26.93;;
8279;SDS011;8335;42.646;23.380;2023-02-28T05:58:42;50.93;;;24.43;;
8279;SDS011;8335;42.646;23.380;2023-02-28T06:01:25;47.27;;;23.77;;
8279;SDS011;8335;42.646;23.380;2023-02-28T06:03:58;48.83;;;24.57;;
8279;SDS011;8335;42.646;23.380;2023-02-28T06:06:27;49.53;;;25.17;;
8279;SDS011;8335;42.646;23.380;2023-02-28T06:08:55;46.93;;;23.57;;
8279;SDS011;8335;42.646;23.380;2023-02-28T06:11:22;47.07;;;23.27;;
8279;SDS011;8335;42.646;23.380;2023-02-28T06:13:53;46.77;;;23.07;;
8279;SDS011;8335;42.646;23.380;2023-02-28T06:16:20;41.93;;;21.63;;
8279;SDS011;8335;42.646;23.380;2023-02-28T06:18:46;44.67;;;24.40;;
8279;SDS011;8335;42.646;23.380;2023-02-28T06:21:13;39.70;;;21.87;;
8279;SDS011;8335;42.646;23.380;2023-02-28T06:23:41;42.00;;;22.13;;
8279;SDS011;8335;42.646;23.380;2023-02-28T06:26:08;35.33;;;20.37;;
8279;SDS011;8335;42.646;23.380;2023-02-28T06:28:35;38.00;;;18.90;;
8279;SDS011;8335;42.646;23.380;2023-02-28T06:31:05;35.53;;;19.13;;
8279;SDS011;8335;42.646;23.380;2023-02-28T06:33:33;35.63;;;19.83;;
8279;SDS011;8335;42.646;23.380;2023-02-28T06:36:00;35.90;;;20.50;;
8279;SDS011;8335;42.646;23.380;2023-02-28T06:38:27;38.83;;;20.13;;
8279;SDS011;8335;42.646;23.380;2023-02-28T06:40:56;37.43;;;20.23;;
8279;SDS011;8335;42.646;23.380;2023-02-28T06:43:24;36.17;;;19.97;;
8279;SDS011;8335;42.646;23.380;2023-02-28T06:45:54;34.43;;;17.87;;
8279;SDS011;8335;42.646;23.380;2023-02-28T06:48:21;30.90;;;18.13;;
8279;SDS011;8335;42.646;23.380;2023-02-28T06:50:47;33.47;;;18.27;;
8279;SDS011;8335;42.646;23.380;2023-02-28T06:53:14;33.93;;;17.73;;
8279;SDS011;8335;42.646;23.380;2023-02-28T06:55:41;32.80;;;18.43;;
8279;SDS011;8335;42.646;23.380;2023-02-28T06:58:09;38.67;;;19.20;;
8279;SDS011;8335;42.646;23.380;2023-02-28T07:00:40;37.53;;;20.63;;
8279;SDS011;8335;42.646;23.380;2023-02-28T07:03:07;38.87;;;20.73;;
8279;SDS011;8335;42.646;23.380;2023-02-28T07:05:34;45.13;;;20.10;;
8279;SDS011;8335;42.646;23.380;2023-02-28T07:08:01;41.77;;;23.17;;
8279;SDS011;8335;42.646;23.380;2023-02-28T07:10:28;42.30;;;23.87;;
8279;SDS011;8335;42.646;23.380;2023-02-28T07:12:55;44.97;;;23.60;;
8279;SDS011;8335;42.646;23.380;2023-02-28T07:15:23;50.77;;;24.60;;
8279;SDS011;8335;42.646;23.380;2023-02-28T07:17:50;50.50;;;25.43;;
8279;SDS011;8335;42.646;23.380;2023-02-28T07:20:16;46.70;;;26.17;;
8279;SDS011;8335;42.646;23.380;2023-02-28T07:22:43;44.43;;;24.90;;
8279;SDS011;8335;42.646;23.380;2023-02-28T07:25:10;41.67;;;23.77;;
8279;SDS011;8335;42.646;23.380;2023-02-28T07:27:37;42.40;;;24.10;;
8279;SDS011;8335;42.646;23.380;2023-02-28T07:30:04;42.13;;;24.43;;
8279;SDS011;8335;42.646;23.380;2023-02-28T07:32:32;47.33;;;23.77;;
8279;SDS011;8335;42.646;23.380;2023-02-28T07:35:02;35.87;;;19.33;;
8279;SDS011;8335;42.646;23.380;2023-02-28T07:37:29;33.30;;;19.17;;
8279;SDS011;8335;42.646;23.380;2023-02-28T07:40:01;36.33;;;17.73;;
8279;SDS011;8335;42.646;23.380;2023-02-28T07:42:31;33.53;;;18.70;;
8279;SDS011;8335;42.646;23.380;2023-02-28T07:44:58;32.10;;;17.33;;
8279;SDS011;8335;42.646;23.380;2023-02-28T07:47:25;36.93;;;18.40;;
8279;SDS011;8335;42.646;23.380;2023-02-28T07:49:53;34.87;;;17.70;;
8279;SDS011;8335;42.646;23.380;2023-02-28T07:52:19;34.80;;;18.33;;
8279;SDS011;8335;42.646;23.380;2023-02-28T07:54:46;31.00;;;17.97;;
8279;SDS011;8335;42.646;23.380;2023-02-28T07:57:13;40.57;;;19.37;;
8279;SDS011;8335;42.646;23.380;2023-02-28T07:59:40;36.47;;;18.20;;
8279;SDS011;8335;42.646;23.380;2023-02-28T08:02:06;36.13;;;20.13;;
8279;SDS011;8335;42.646;23.380;2023-02-28T08:04:36;33.70;;;18.50;;
8279;SDS011;8335;42.646;23.380;2023-02-28T08:07:05;32.20;;;17.43;;
8279;SDS011;8335;42.646;23.380;2023-02-28T08:09:31;39.07;;;20.27;;
8279;SDS011;8335;42.646;23.380;2023-02-28T08:11:59;33.60;;;18.03;;
8279;SDS011;8335;42.646;23.380;2023-02-28T08:14:25;30.17;;;16.50;;
8279;SDS011;8335;42.646;23.380;2023-02-28T08:16:52;36.13;;;18.17;;
8279;SDS011;8335;42.646;23.380;2023-02-28T08:19:21;41.43;;;17.50;;
8279;SDS011;8335;42.646;23.380;2023-02-28T08:21:47;31.80;;;17.53;;
8279;SDS011;8335;42.646;23.380;2023-02-28T08:24:15;36.70;;;17.63;;
8279;SDS011;8335;42.646;23.380;2023-02-28T08:26:42;36.00;;;17.03;;
8279;SDS011;8335;42.646;23.380;2023-02-28T08:29:09;29.57;;;15.60;;
8279;SDS011;8335;42.646;23.380;2023-02-28T08:31:36;28.60;;;15.87;;
8279;SDS011;8335;42.646;23.380;2023-02-28T08:34:04;30.07;;;16.43;;
8279;SDS011;8335;42.646;23.380;2023-02-28T08:36:32;39.63;;;16.57;;
8279;SDS011;8335;42.646;23.380;2023-02-28T08:38:58;34.67;;;18.00;;
8279;SDS011;8335;42.646;23.380;2023-02-28T08:41:27;37.77;;;17.20;;
8279;SDS011;8335;42.646;23.380;2023-02-28T08:43:53;32.67;;;16.03;;
8279;SDS011;8335;42.646;23.380;2023-02-28T08:46:20;30.33;;;16.60;;
8279;SDS011;8335;42.646;23.380;2023-02-28T08:48:50;33.70;;;16.17;;
8279;SDS011;8335;42.646;23.380;2023-02-28T08:51:18;33.10;;;16.07;;
8279;SDS011;8335;42.646;23.380;2023-02-28T08:53:51;33.97;;;15.23;;
8279;SDS011;8335;42.646;23.380;2023-02-28T08:56:18;28.67;;;15.10;;
8279;SDS011;8335;42.646;23.380;2023-02-28T08:58:47;31.33;;;15.87;;
8279;SDS011;8335;42.646;23.380;2023-02-28T09:01:15;25.97;;;13.53;;
8279;SDS011;8335;42.646;23.380;2023-02-28T09:03:44;33.83;;;14.63;;
8279;SDS011;8335;42.646;23.380;2023-02-28T09:06:12;29.30;;;15.13;;
8279;SDS011;8335;42.646;23.380;2023-02-28T09:08:40;29.00;;;15.23;;
8279;SDS011;8335;42.646;23.380;2023-02-28T09:11:07;27.57;;;14.53;;
8279;SDS011;8335;42.646;23.380;2023-02-28T09:13:34;34.63;;;15.40;;
8279;SDS011;8335;42.646;23.380;2023-02-28T09:16:04;30.50;;;15.50;;
8279;SDS011;8335;42.646;23.380;2023-02-28T09:18:33;34.47;;;14.87;;
8279;SDS011;8335;42.646;23.380;2023-02-28T09:21:02;31.10;;;14.67;;
8279;SDS011;8335;42.646;23.380;2023-02-28T09:23:29;30.83;;;14.83;;
8279;SDS011;8335;42.646;23.380;2023-02-28T09:25:56;27.73;;;15.27;;
8279;SDS011;8335;42.646;23.380;2023-02-28T09:28:23;31.27;;;15.67;;
8279;SDS011;8335;42.646;23.380;2023-02-28T09:30:51;31.33;;;14.57;;
8279;SDS011;8335;42.646;23.380;2023-02-28T09:33:21;26.73;;;15.63;;
8279;SDS011;8335;42.646;23.380;2023-02-28T09:35:48;32.60;;;15.23;;
8279;SDS011;8335;42.646;23.380;2023-02-28T09:38:15;29.77;;;15.67;;
8279;SDS011;8335;42.646;23.380;2023-02-28T09:40:46;32.47;;;14.90;;
8279;SDS011;8335;42.646;23.380;2023-02-28T09:43:16;37.30;;;14.97;;
8279;SDS011;8335;42.646;23.380;2023-02-28T09:45:47;26.60;;;14.67;;
8279;SDS011;8335;42.646;23.380;2023-02-28T09:48:25;27.13;;;12.87;;
8279;SDS011;8335;42.646;23.380;2023-02-28T09:50:57;27.63;;;14.43;;
8279;SDS011;8335;42.646;23.380;2023-02-28T09:53:29;25.70;;;14.27;;
8279;SDS011;8335;42.646;23.380;2023-02-28T09:55:59;25.73;;;13.87;;
8279;SDS011;8335;42.646;23.380;2023-02-28T09:58:31;28.50;;;13.67;;
8279;SDS011;8335;42.646;23.380;2023-02-28T10:01:03;29.83;;;14.03;;
8279;SDS011;8335;42.646;23.380;2023-02-28T10:03:37;27.07;;;13.97;;
8279;SDS011;8335;42.646;23.380;2023-02-28T10:06:07;25.03;;;13.03;;
8279;SDS011;8335;42.646;23.380;2023-02-28T10:08:40;27.27;;;14.03;;
8279;SDS011;8335;42.646;23.380;2023-02-28T10:11:16;24.17;;;12.97;;
8279;SDS011;8335;42.646;23.380;2023-02-28T10:13:48;31.10;;;13.23;;
8279;SDS011;8335;42.646;23.380;2023-02-28T10:16:20;26.73;;;13.90;;
8279;SDS011;8335;42.646;23.380;2023-02-28T10:18:56;27.73;;;12.87;;
8279;SDS011;8335;42.646;23.380;2023-02-28T10:21:30;29.03;;;13.80;;
8279;SDS011;8335;42.646;23.380;2023-02-28T10:24:03;26.47;;;12.90;;
8279;SDS011;8335;42.646;23.380;2023-02-28T10:26:37;21.87;;;11.97;;
8279;SDS011;8335;42.646;23.380;2023-02-28T10:29:04;33.00;;;13.33;;
8279;SDS011;8335;42.646;23.380;2023-02-28T10:31:31;29.37;;;13.20;;
8279;SDS011;8335;42.646;23.380;2023-02-28T10:34:00;31.80;;;14.60;;
8279;SDS011;8335;42.646;23.380;2023-02-28T10:36:28;26.80;;;12.00;;
8279;SDS011;8335;42.646;23.380;2023-02-28T10:38:55;31.53;;;12.83;;
8279;SDS011;8335;42.646;23.380;2023-02-28T10:41:28;26.93;;;11.90;;
8279;SDS011;8335;42.646;23.380;2023-02-28T10:44:17;25.40;;;12.40;;
8279;SDS011;8335;42.646;23.380;2023-02-28T10:46:47;26.20;;;12.93;;
8279;SDS011;8335;42.646;23.380;2023-02-28T10:49:17;23.30;;;13.33;;
8279;SDS011;8335;42.646;23.380;2023-02-28T10:51:47;25.90;;;13.70;;
8279;SDS011;8335;42.646;23.380;2023-02-28T10:54:18;21.80;;;12.47;;
8279;SDS011;8335;42.646;23.380;2023-02-28T10:59:35;27.23;;;12.53;;
8279;SDS011;8335;42.646;23.380;2023-02-28T11:02:07;23.03;;;12.13;;
8279;SDS011;8335;42.646;23.380;2023-02-28T11:05:00;23.13;;;11.80;;
8279;SDS011;8335;42.646;23.380;2023-02-28T11:07:27;30.20;;;13.40;;
8279;SDS011;8335;42.646;23.380;2023-02-28T11:09:55;24.90;;;12.20;;
8279;SDS011;8335;42.646;23.380;2023-02-28T11:12:25;23.60;;;11.73;;
8279;SDS011;8335;42.646;23.380;2023-02-28T11:14:55;27.93;;;12.73;;
8279;SDS011;8335;42.646;23.380;2023-02-28T11:17:26;30.23;;;12.70;;
8279;SDS011;8335;42.646;23.380;2023-02-28T11:19:56;23.00;;;13.17;;
8279;SDS011;8335;42.646;23.380;2023-02-28T11:22:29;25.47;;;12.47;;
8279;SDS011;8335;42.646;23.380;2023-02-28T11:25:01;23.83;;;13.03;;
8279;SDS011;8335;42.646;23.380;2023-02-28T11:30:28;26.13;;;13.97;;
8279;SDS011;8335;42.646;23.380;2023-02-28T11:32:56;24.57;;;13.10;;
8279;SDS011;8335;42.646;23.380;2023-02-28T11:35:24;28.13;;;14.00;;
8279;SDS011;8335;42.646;23.380;2023-02-28T11:37:56;26.20;;;14.27;;
8279;SDS011;8335;42.646;23.380;2023-02-28T11:40:25;27.73;;;13.67;;
8279;SDS011;8335;42.646;23.380;2023-02-28T11:43:06;29.37;;;15.07;;
8279;SDS011;8335;42.646;23.380;2023-02-28T11:45:44;29.73;;;14.10;;
8279;SDS011;8335;42.646;23.380;2023-02-28T11:48:21;26.40;;;14.00;;
8279;SDS011;8335;42.646;23.380;2023-02-28T11:50:52;30.33;;;15.47;;
8279;SDS011;8335;42.646;23.380;2023-02-28T11:53:30;26.93;;;13.90;;
8279;SDS011;8335;42.646;23.380;2023-02-28T11:56:10;29.73;;;14.57;;
8279;SDS011;8335;42.646;23.380;2023-02-28T11:58:48;27.87;;;15.03;;
8279;SDS011;8335;42.646;23.380;2023-02-28T12:01:24;23.20;;;13.07;;
8279;SDS011;8335;42.646;23.380;2023-02-28T12:04:03;30.43;;;12.73;;
8279;SDS011;8335;42.646;23.380;2023-02-28T12:06:38;31.50;;;14.17;;
8279;SDS011;8335;42.646;23.380;2023-02-28T12:09:17;25.47;;;13.53;;
8279;SDS011;8335;42.646;23.380;2023-02-28T12:11:56;30.30;;;13.43;;
8279;SDS011;8335;42.646;23.380;2023-02-28T12:14:30;31.10;;;13.83;;
8279;SDS011;8335;42.646;23.380;2023-02-28T12:17:12;29.20;;;14.83;;
8279;SDS011;8335;42.646;23.380;2023-02-28T12:19:49;27.23;;;13.70;;
8279;SDS011;8335;42.646;23.380;2023-02-28T12:22:30;28.13;;;14.37;;
8279;SDS011;8335;42.646;23.380;2023-02-28T12:25:02;30.77;;;13.50;;
8279;SDS011;8335;42.646;23.380;2023-02-28T12:27:48;28.33;;;13.83;;
8279;SDS011;8335;42.646;23.380;2023-02-28T12:30:19;23.03;;;13.23;;
8279;SDS011;8335;42.646;23.380;2023-02-28T12:32:50;25.03;;;13.40;;
8279;SDS011;8335;42.646;23.380;2023-02-28T12:35:22;27.83;;;13.63;;
8279;SDS011;8335;42.646;23.380;2023-02-28T12:37:54;27.53;;;13.07;;
8279;SDS011;8335;42.646;23.380;2023-02-28T12:40:31;28.00;;;13.10;;
8279;SDS011;8335;42.646;23.380;2023-02-28T12:43:07;25.30;;;13.50;;
8279;SDS011;8335;42.646;23.380;2023-02-28T12:45:39;25.73;;;13.87;;
8279;SDS011;8335;42.646;23.380;2023-02-28T12:48:14;27.27;;;13.17;;
8279;SDS011;8335;42.646;23.380;2023-02-28T12:50:45;23.83;;;12.60;;
8279;SDS011;8335;42.646;23.380;2023-02-28T12:53:15;21.97;;;12.57;;
8279;SDS011;8335;42.646;23.380;2023-02-28T12:55:54;22.57;;;13.00;;
8279;SDS011;8335;42.646;23.380;2023-02-28T12:58:30;24.77;;;12.83;;
8279;SDS011;8335;42.646;23.380;2023-02-28T13:04:19;28.23;;;13.30;;
8279;SDS011;8335;42.646;23.380;2023-02-28T13:07:00;28.13;;;13.10;;
8279;SDS011;8335;42.646;23.380;2023-02-28T13:09:50;21.47;;;12.63;;
8279;SDS011;8335;42.646;23.380;2023-02-28T13:12:20;29.07;;;12.30;;
8279;SDS011;8335;42.646;23.380;2023-02-28T13:14:48;25.03;;;12.10;;
8279;SDS011;8335;42.646;23.380;2023-02-28T13:17:17;24.50;;;12.57;;
8279;SDS011;8335;42.646;23.380;2023-02-28T13:19:55;26.23;;;12.33;;
8279;SDS011;8335;42.646;23.380;2023-02-28T13:22:36;19.10;;;10.57;;
8279;SDS011;8335;42.646;23.380;2023-02-28T13:31:32;26.67;;;11.87;;
8279;SDS011;8335;42.646;23.380;2023-02-28T13:34:19;20.57;;;10.00;;
8279;SDS011;8335;42.646;23.380;2023-02-28T13:36:46;20.03;;;10.07;;
8279;SDS011;8335;42.646;23.380;2023-02-28T13:42:30;25.30;;;11.33;;
8279;SDS011;8335;42.646;23.380;2023-02-28T13:45:23;22.93;;;9.93;;
8279;SDS011;8335;42.646;23.380;2023-02-28T13:47:52;26.50;;;9.90;;
8279;SDS011;8335;42.646;23.380;2023-02-28T13:50:22;21.07;;;10.23;;
8279;SDS011;8335;42.646;23.380;2023-02-28T13:53:00;22.33;;;9.97;;
8279;SDS011;8335;42.646;23.380;2023-02-28T13:55:46;21.17;;;9.97;;
8279;SDS011;8335;42.646;23.380;2023-02-28T13:58:31;19.80;;;9.17;;
8279;SDS011;8335;42.646;23.380;2023-02-28T14:01:12;24.07;;;10.63;;
8279;SDS011;8335;42.646;23.380;2023-02-28T14:03:53;24.07;;;10.50;;
8279;SDS011;8335;42.646;23.380;2023-02-28T14:06:37;23.97;;;10.47;;
8279;SDS011;8335;42.646;23.380;2023-02-28T14:09:06;29.83;;;11.37;;
8279;SDS011;8335;42.646;23.380;2023-02-28T14:11:45;23.40;;;10.47;;
8279;SDS011;8335;42.646;23.380;2023-02-28T14:17:14;23.93;;;11.50;;
8279;SDS011;8335;42.646;23.380;2023-02-28T14:19:43;21.87;;;10.77;;
8279;SDS011;8335;42.646;23.380;2023-02-28T14:22:16;28.20;;;11.90;;
8279;SDS011;8335;42.646;23.380;2023-02-28T14:25:09;20.23;;;10.47;;
8279;SDS011;8335;42.646;23.380;2023-02-28T14:27:45;21.17;;;11.33;;
8279;SDS011;8335;42.646;23.380;2023-02-28T14:33:22;31.17;;;10.83;;
8279;SDS011;8335;42.646;23.380;2023-02-28T14:35:57;20.20;;;9.60;;
8279;SDS011;8335;42.646;23.380;2023-02-28T14:38:35;27.67;;;11.07;;
8279;SDS011;8335;42.646;23.380;2023-02-28T14:41:11;25.23;;;11.63;;
8279;SDS011;8335;42.646;23.380;2023-02-28T14:43:52;23.77;;;10.90;;
8279;SDS011;8335;42.646;23.380;2023-02-28T14:46:22;25.57;;;10.50;;
8279;SDS011;8335;42.646;23.380;2023-02-28T14:48:54;25.40;;;10.33;;
8279;SDS011;8335;42.646;23.380;2023-02-28T14:51:21;20.90;;;10.63;;
8279;SDS011;8335;42.646;23.380;2023-02-28T14:53:50;21.20;;;10.37;;
8279;SDS011;8335;42.646;23.380;2023-02-28T14:56:19;20.57;;;10.43;;
8279;SDS011;8335;42.646;23.380;2023-02-28T14:58:52;23.17;;;10.57;;
8279;SDS011;8335;42.646;23.380;2023-02-28T15:01:21;18.60;;;9.70;;
8279;SDS011;8335;42.646;23.380;2023-02-28T15:03:58;25.40;;;10.73;;
8279;SDS011;8335;42.646;23.380;2023-02-28T15:06:27;22.83;;;11.30;;
8279;SDS011;8335;42.646;23.380;2023-02-28T15:09:06;19.57;;;9.63;;
8279;SDS011;8335;42.646;23.380;2023-02-28T15:11:34;23.37;;;10.27;;
8279;SDS011;8335;42.646;23.380;2023-02-28T15:14:01;23.77;;;10.47;;
8279;SDS011;8335;42.646;23.380;2023-02-28T15:16:29;13.47;;;8.43;;
8279;SDS011;8335;42.646;23.380;2023-02-28T15:19:01;24.37;;;9.07;;
8279;SDS011;8335;42.646;23.380;2023-02-28T15:21:31;24.63;;;10.73;;
8279;SDS011;8335;42.646;23.380;2023-02-28T15:24:01;22.50;;;10.20;;
8279;SDS011;8335;42.646;23.380;2023-02-28T15:26:33;23.60;;;10.13;;
8279;SDS011;8335;42.646;23.380;2023-02-28T15:29:05;19.83;;;8.97;;
8279;SDS011;8335;42.646;23.380;2023-02-28T15:31:33;17.33;;;9.30;;
8279;SDS011;8335;42.646;23.380;2023-02-28T15:34:04;18.03;;;8.80;;
8279;SDS011;8335;42.646;23.380;2023-02-28T15:36:33;24.53;;;10.03;;
8279;SDS011;8335;42.646;23.380;2023-02-28T15:39:02;21.27;;;10.63;;